createdAt,value
2018-03-15T00:01:00.879Z,0
2018-03-15T00:02:02.300Z,0
2018-03-15T00:03:03.643Z,0
2018-03-15T00:04:05.043Z,0
2018-03-15T00:05:06.441Z,0
2018-03-15T00:06:07.827Z,0
2018-03-15T00:07:09.210Z,0
2018-03-15T00:08:10.605Z,0
2018-03-15T00:09:11.982Z,0
2018-03-15T00:10:13.364Z,0
2018-03-15T00:11:14.749Z,0
2018-03-15T00:12:16.136Z,0
2018-03-15T00:13:17.524Z,0
2018-03-15T00:14:18.919Z,0
2018-03-15T00:15:20.303Z,0
2018-03-15T00:16:21.686Z,0
2018-03-15T00:17:23.072Z,0
2018-03-15T00:18:24.461Z,0
2018-03-15T00:19:25.840Z,0
2018-03-15T00:20:27.249Z,0
2018-03-15T00:21:28.634Z,0
2018-03-15T00:22:30.020Z,0
2018-03-15T00:23:31.406Z,0
2018-03-15T00:24:32.794Z,0
2018-03-15T00:25:34.181Z,0
2018-03-15T00:26:35.581Z,0
2018-03-15T00:27:36.982Z,0
2018-03-15T00:28:38.356Z,0
2018-03-15T00:29:39.743Z,0
2018-03-15T00:30:41.125Z,0
2018-03-15T00:31:42.510Z,0
2018-03-15T00:32:43.897Z,0
2018-03-15T00:33:45.282Z,0
2018-03-15T00:34:46.671Z,0
2018-03-15T00:35:48.055Z,0
2018-03-15T00:36:49.435Z,0
2018-03-15T00:37:50.820Z,0
2018-03-15T00:38:52.212Z,0
2018-03-15T00:39:53.597Z,0
2018-03-15T00:40:54.981Z,0
2018-03-15T00:41:56.367Z,0
2018-03-15T00:42:57.750Z,0
2018-03-15T00:43:59.140Z,0
2018-03-15T00:45:00.541Z,0
2018-03-15T00:46:01.923Z,0
2018-03-15T00:47:03.306Z,0
2018-03-15T00:48:04.690Z,0
2018-03-15T00:49:06.077Z,0
2018-03-15T00:50:07.465Z,0
2018-03-15T00:51:08.849Z,0
2018-03-15T00:52:10.231Z,0
2018-03-15T00:53:11.617Z,0
2018-03-15T00:54:13.001Z,0
2018-03-15T00:55:14.421Z,0
2018-03-15T00:56:15.937Z,0
2018-03-15T00:57:17.321Z,0
2018-03-15T00:58:18.707Z,0
2018-03-15T00:59:20.092Z,0
2018-03-15T01:00:21.477Z,0
2018-03-15T01:01:22.861Z,0
2018-03-15T01:02:24.244Z,0
2018-03-15T01:03:25.635Z,0
2018-03-15T01:04:27.021Z,0
2018-03-15T01:05:28.406Z,0
2018-03-15T01:06:29.785Z,0
2018-03-15T01:07:31.169Z,0
2018-03-15T01:08:32.556Z,0
2018-03-15T01:09:33.943Z,0
2018-03-15T01:10:35.332Z,0
2018-03-15T01:11:36.714Z,0
2018-03-15T01:12:38.098Z,0
2018-03-15T01:13:39.479Z,0
2018-03-15T01:14:40.862Z,0
2018-03-15T01:15:42.249Z,0
2018-03-15T01:16:43.645Z,0
2018-03-15T01:17:45.030Z,0
2018-03-15T01:18:46.414Z,0
2018-03-15T01:19:47.794Z,0
2018-03-15T01:20:49.176Z,0
2018-03-15T01:21:50.559Z,0
2018-03-15T01:22:51.966Z,0
2018-03-15T01:23:53.351Z,0
2018-03-15T01:24:54.738Z,0
2018-03-15T01:25:56.123Z,0
2018-03-15T01:26:57.507Z,0
2018-03-15T01:27:58.889Z,0
2018-03-15T01:29:00.313Z,0
2018-03-15T01:30:01.703Z,0
2018-03-15T01:31:03.092Z,0
2018-03-15T01:32:04.477Z,0
2018-03-15T01:33:05.869Z,0
2018-03-15T01:34:07.247Z,0
2018-03-15T01:35:08.628Z,0
2018-03-15T01:36:10.011Z,0
2018-03-15T01:37:11.398Z,0
2018-03-15T01:38:12.795Z,0
2018-03-15T01:39:14.188Z,0
2018-03-15T01:40:15.567Z,0
2018-03-15T01:41:16.949Z,0
2018-03-15T01:42:18.331Z,0
2018-03-15T01:43:19.716Z,0
2018-03-15T01:44:21.108Z,0
2018-03-15T01:45:22.494Z,0
2018-03-15T01:46:23.882Z,0
2018-03-15T01:47:25.306Z,0
2018-03-15T01:48:26.703Z,0
2018-03-15T01:49:28.094Z,0
2018-03-15T01:50:29.482Z,0
2018-03-15T01:51:30.866Z,0
2018-03-15T01:52:32.250Z,0
2018-03-15T01:53:33.658Z,0
2018-03-15T01:54:35.045Z,0
2018-03-15T01:55:36.426Z,0
2018-03-15T01:56:37.814Z,0
2018-03-15T01:57:39.199Z,0
2018-03-15T01:58:40.582Z,0
2018-03-15T01:59:41.968Z,0
2018-03-15T02:00:43.353Z,0
2018-03-15T02:01:44.735Z,0
2018-03-15T02:02:46.120Z,0
2018-03-15T02:03:47.504Z,0
2018-03-15T02:04:48.883Z,0
2018-03-15T02:05:50.295Z,0
2018-03-15T02:06:51.683Z,0
2018-03-15T02:07:53.069Z,0
2018-03-15T02:08:54.455Z,0
2018-03-15T02:09:55.853Z,0
2018-03-15T02:10:57.230Z,0
2018-03-15T02:11:58.616Z,0
2018-03-15T02:13:00.000Z,0
2018-03-15T02:14:01.385Z,0
2018-03-15T02:15:02.770Z,0
2018-03-15T02:16:04.150Z,0
2018-03-15T02:17:05.532Z,0
2018-03-15T02:18:06.914Z,0
2018-03-15T02:19:08.298Z,0
2018-03-15T02:20:09.680Z,0
2018-03-15T02:21:11.065Z,0
2018-03-15T02:22:12.481Z,0
2018-03-15T02:23:13.841Z,0
2018-03-15T02:24:15.224Z,0
2018-03-15T02:25:16.612Z,0
2018-03-15T02:26:17.996Z,0
2018-03-15T02:27:19.393Z,0
2018-03-15T02:28:20.778Z,0
2018-03-15T02:29:22.163Z,0
2018-03-15T02:30:23.545Z,0
2018-03-15T02:31:24.928Z,0
2018-03-15T02:32:26.319Z,0
2018-03-15T02:33:27.703Z,0
2018-03-15T02:34:29.094Z,0
2018-03-15T02:35:30.484Z,0
2018-03-15T02:36:31.872Z,0
2018-03-15T02:37:33.323Z,0
2018-03-15T02:38:34.664Z,0
2018-03-15T02:39:36.068Z,0
2018-03-15T02:40:37.464Z,0
2018-03-15T02:41:38.836Z,0
2018-03-15T02:42:40.222Z,0
2018-03-15T02:43:41.614Z,0
2018-03-15T02:44:42.993Z,0
2018-03-15T02:45:44.379Z,0
2018-03-15T02:46:45.768Z,0
2018-03-15T02:47:47.151Z,0
2018-03-15T02:48:48.533Z,0
2018-03-15T02:49:49.914Z,0
2018-03-15T02:50:51.313Z,0
2018-03-15T02:51:52.695Z,0
2018-03-15T02:52:54.074Z,0
2018-03-15T02:53:55.456Z,0
2018-03-15T02:54:56.841Z,0
2018-03-15T02:55:58.228Z,0
2018-03-15T02:56:59.612Z,0
2018-03-15T02:58:00.997Z,0
2018-03-15T02:59:02.380Z,0
2018-03-15T03:00:03.762Z,0
2018-03-15T03:01:05.145Z,0
2018-03-15T03:02:06.528Z,0
2018-03-15T03:03:07.964Z,0
2018-03-15T03:04:09.301Z,0
2018-03-15T03:05:10.691Z,0
2018-03-15T03:06:12.070Z,0
2018-03-15T03:07:13.455Z,0
2018-03-15T03:08:14.841Z,0
2018-03-15T03:09:16.237Z,0
2018-03-15T03:10:17.606Z,0
2018-03-15T03:11:18.997Z,0
2018-03-15T03:12:20.387Z,0
2018-03-15T03:13:21.769Z,0
2018-03-15T03:14:23.152Z,0
2018-03-15T03:15:24.560Z,0
2018-03-15T03:16:25.941Z,0
2018-03-15T03:17:27.320Z,0
2018-03-15T03:18:28.707Z,0
2018-03-15T03:19:30.089Z,0
2018-03-15T03:20:31.471Z,0
2018-03-15T03:21:32.854Z,0
2018-03-15T03:22:34.238Z,0
2018-03-15T03:23:35.624Z,0
2018-03-15T03:24:37.013Z,0
2018-03-15T03:25:38.396Z,0
2018-03-15T03:26:39.784Z,0
2018-03-15T03:27:41.165Z,0
2018-03-15T03:28:42.547Z,0
2018-03-15T03:29:44.027Z,0
2018-03-15T03:30:45.469Z,0
2018-03-15T03:31:46.887Z,0
2018-03-15T03:32:48.271Z,0
2018-03-15T03:33:49.670Z,0
2018-03-15T03:34:51.052Z,0
2018-03-15T03:35:52.433Z,0
2018-03-15T03:36:53.827Z,0
2018-03-15T03:37:55.211Z,0
2018-03-15T03:38:56.594Z,0
2018-03-15T03:39:58.014Z,0
2018-03-15T03:40:59.394Z,0
2018-03-15T03:42:00.779Z,0
2018-03-15T03:43:02.164Z,0
2018-03-15T03:44:03.549Z,0
2018-03-15T03:45:04.932Z,0
2018-03-15T03:46:06.318Z,0
2018-03-15T03:47:07.701Z,0
2018-03-15T03:48:09.086Z,0
2018-03-15T03:49:10.469Z,0
2018-03-15T03:50:11.854Z,0
2018-03-15T03:51:13.238Z,0
2018-03-15T03:52:14.652Z,0
2018-03-15T03:53:16.025Z,0
2018-03-15T03:54:17.408Z,0
2018-03-15T03:55:18.808Z,0
2018-03-15T03:56:20.186Z,0
2018-03-15T03:57:21.570Z,0
2018-03-15T03:58:22.948Z,0
2018-03-15T03:59:24.330Z,0
2018-03-15T04:00:25.716Z,0
2018-03-15T04:01:27.100Z,0
2018-03-15T04:02:28.485Z,0
2018-03-15T04:03:29.867Z,0
2018-03-15T04:04:31.250Z,0
2018-03-15T04:05:32.635Z,0
2018-03-15T04:06:34.015Z,0
2018-03-15T04:07:35.398Z,0
2018-03-15T04:08:36.784Z,0
2018-03-15T04:09:38.174Z,0
2018-03-15T04:10:39.555Z,0
2018-03-15T04:11:40.937Z,0
2018-03-15T04:12:42.319Z,0
2018-03-15T04:13:43.704Z,0
2018-03-15T04:14:45.096Z,0
2018-03-15T04:15:46.556Z,0
2018-03-15T04:16:47.876Z,0
2018-03-15T04:17:49.248Z,0
2018-03-15T04:18:50.636Z,0
2018-03-15T04:19:52.028Z,0
2018-03-15T04:20:53.475Z,0
2018-03-15T04:21:54.869Z,0
2018-03-15T04:22:56.267Z,0
2018-03-15T04:23:57.650Z,0
2018-03-15T04:24:59.037Z,0
2018-03-15T04:26:00.421Z,0
2018-03-15T04:27:01.804Z,0
2018-03-15T04:28:03.185Z,0
2018-03-15T04:29:04.569Z,0
2018-03-15T04:30:05.962Z,0
2018-03-15T04:31:07.339Z,0
2018-03-15T04:32:08.726Z,0
2018-03-15T04:33:10.107Z,0
2018-03-15T04:34:11.492Z,0
2018-03-15T04:35:12.873Z,0
2018-03-15T04:36:14.259Z,0
2018-03-15T04:37:15.643Z,0
2018-03-15T04:38:17.029Z,0
2018-03-15T04:39:18.429Z,0
2018-03-15T04:40:19.810Z,0
2018-03-15T04:41:21.196Z,0
2018-03-15T04:42:22.582Z,0
2018-03-15T04:43:23.966Z,0
2018-03-15T04:44:25.385Z,0
2018-03-15T04:45:26.741Z,0
2018-03-15T04:46:28.122Z,0
2018-03-15T04:47:29.514Z,0
2018-03-15T04:48:30.901Z,0
2018-03-15T04:49:32.293Z,0
2018-03-15T04:50:33.677Z,0
2018-03-15T04:51:35.061Z,0
2018-03-15T04:52:36.446Z,0
2018-03-15T04:53:37.831Z,0
2018-03-15T04:54:39.212Z,0
2018-03-15T04:55:40.599Z,0
2018-03-15T04:56:41.982Z,0
2018-03-15T04:57:43.364Z,0
2018-03-15T04:58:44.766Z,0
2018-03-15T04:59:46.178Z,0
2018-03-15T05:00:47.559Z,0
2018-03-15T05:01:48.952Z,0
2018-03-15T05:02:50.333Z,0
2018-03-15T05:03:51.719Z,0
2018-03-15T05:04:53.105Z,0
2018-03-15T05:05:54.482Z,0
2018-03-15T05:06:55.872Z,0
2018-03-15T05:07:57.256Z,0
2018-03-15T05:08:58.640Z,0
2018-03-15T05:10:00.039Z,0
2018-03-15T05:11:01.434Z,0
2018-03-15T05:12:02.808Z,0
2018-03-15T05:13:04.256Z,0
2018-03-15T05:14:05.646Z,0
2018-03-15T05:15:07.028Z,0
2018-03-15T05:16:08.409Z,0
2018-03-15T05:17:09.797Z,0
2018-03-15T05:18:11.228Z,0
2018-03-15T05:19:12.573Z,0
2018-03-15T05:20:13.954Z,4
2018-03-15T05:21:15.344Z,0
2018-03-15T05:22:16.726Z,0
2018-03-15T05:23:18.112Z,0
2018-03-15T05:24:19.494Z,0
2018-03-15T05:25:20.877Z,4
2018-03-15T05:26:22.262Z,0
2018-03-15T05:27:23.647Z,4
2018-03-15T05:28:25.041Z,0
2018-03-15T05:29:26.442Z,4
2018-03-15T05:30:27.825Z,4
2018-03-15T05:31:29.214Z,4
2018-03-15T05:32:30.627Z,8
2018-03-15T05:33:32.015Z,8
2018-03-15T05:34:33.400Z,8
2018-03-15T05:35:34.787Z,8
2018-03-15T05:36:36.179Z,12
2018-03-15T05:37:37.564Z,16
2018-03-15T05:38:38.949Z,16
2018-03-15T05:39:40.330Z,20
2018-03-15T05:40:41.713Z,20
2018-03-15T05:41:43.097Z,24
2018-03-15T05:42:44.487Z,32
2018-03-15T05:43:45.874Z,32
2018-03-15T05:44:47.256Z,36
2018-03-15T05:45:48.681Z,40
2018-03-15T05:46:50.066Z,48
2018-03-15T05:47:51.453Z,52
2018-03-15T05:48:52.842Z,56
2018-03-15T05:49:54.243Z,64
2018-03-15T05:50:55.626Z,72
2018-03-15T05:51:57.012Z,76
2018-03-15T05:52:58.397Z,88
2018-03-15T05:53:59.785Z,92
2018-03-15T05:55:01.168Z,104
2018-03-15T05:56:02.575Z,108
2018-03-15T05:57:03.947Z,120
2018-03-15T05:58:05.335Z,128
2018-03-15T05:59:06.724Z,136
2018-03-15T06:00:08.118Z,144
2018-03-15T06:01:09.503Z,152
2018-03-15T06:02:10.891Z,160
2018-03-15T06:03:12.276Z,172
2018-03-15T06:04:13.743Z,176
2018-03-15T06:05:15.131Z,184
2018-03-15T06:06:16.519Z,196
2018-03-15T06:07:17.904Z,204
2018-03-15T06:08:19.290Z,212
2018-03-15T06:09:20.680Z,216
2018-03-15T06:10:22.071Z,220
2018-03-15T06:11:23.460Z,232
2018-03-15T06:12:24.847Z,236
2018-03-15T06:13:26.239Z,248
2018-03-15T06:14:27.643Z,260
2018-03-15T06:15:29.032Z,276
2018-03-15T06:16:30.421Z,288
2018-03-15T06:17:31.807Z,304
2018-03-15T06:18:33.491Z,316
2018-03-15T06:19:34.873Z,328
2018-03-15T06:20:36.262Z,348
2018-03-15T06:21:37.647Z,356
2018-03-15T06:22:39.036Z,372
2018-03-15T06:23:40.422Z,388
2018-03-15T06:24:41.821Z,404
2018-03-15T06:25:43.216Z,428
2018-03-15T06:26:44.603Z,448
2018-03-15T06:27:45.985Z,476
2018-03-15T06:28:47.421Z,508
2018-03-15T06:29:48.759Z,540
2018-03-15T06:30:50.169Z,556
2018-03-15T06:31:51.544Z,576
2018-03-15T06:32:52.934Z,612
2018-03-15T06:33:54.326Z,656
2018-03-15T06:34:55.718Z,704
2018-03-15T06:35:57.103Z,748
2018-03-15T06:36:58.509Z,792
2018-03-15T06:37:59.896Z,832
2018-03-15T06:39:01.287Z,864
2018-03-15T06:40:02.676Z,896
2018-03-15T06:41:04.060Z,928
2018-03-15T06:42:05.445Z,960
2018-03-15T06:43:06.834Z,1008
2018-03-15T06:44:08.220Z,1052
2018-03-15T06:45:09.631Z,1100
2018-03-15T06:46:11.018Z,1160
2018-03-15T06:47:12.410Z,1216
2018-03-15T06:48:13.795Z,1272
2018-03-15T06:49:15.183Z,1324
2018-03-15T06:50:16.580Z,1364
2018-03-15T06:51:17.973Z,1400
2018-03-15T06:52:19.360Z,1436
2018-03-15T06:53:20.750Z,1460
2018-03-15T06:54:22.166Z,1488
2018-03-15T06:55:23.589Z,1508
2018-03-15T06:56:24.983Z,1548
2018-03-15T06:57:26.369Z,1584
2018-03-15T06:58:27.757Z,1620
2018-03-15T06:59:29.183Z,1656
2018-03-15T07:00:30.574Z,1680
2018-03-15T07:01:31.964Z,1688
2018-03-15T07:02:33.353Z,1688
2018-03-15T07:03:34.737Z,1696
2018-03-15T07:04:36.124Z,1696
2018-03-15T07:05:37.515Z,1700
2018-03-15T07:06:38.904Z,1704
2018-03-15T07:07:40.295Z,1708
2018-03-15T07:08:41.683Z,1712
2018-03-15T07:09:43.071Z,1708
2018-03-15T07:10:44.464Z,1708
2018-03-15T07:11:45.849Z,1728
2018-03-15T07:12:47.235Z,1736
2018-03-15T07:13:48.627Z,1736
2018-03-15T07:14:50.038Z,1728
2018-03-15T07:15:51.427Z,1740
2018-03-15T07:16:52.817Z,1752
2018-03-15T07:17:54.204Z,1720
2018-03-15T07:18:55.593Z,1736
2018-03-15T07:19:56.990Z,1760
2018-03-15T07:20:58.385Z,1784
2018-03-15T07:21:59.782Z,1820
2018-03-15T07:23:01.167Z,1884
2018-03-15T07:24:02.553Z,1940
2018-03-15T07:25:03.944Z,1992
2018-03-15T07:26:05.331Z,2004
2018-03-15T07:27:06.719Z,2012
2018-03-15T07:28:08.122Z,2016
2018-03-15T07:29:09.506Z,2000
2018-03-15T07:30:10.901Z,1992
2018-03-15T07:31:12.287Z,2016
2018-03-15T07:32:13.676Z,2032
2018-03-15T07:33:15.065Z,2064
2018-03-15T07:34:16.457Z,2104
2018-03-15T07:35:17.845Z,2128
2018-03-15T07:36:19.240Z,2160
2018-03-15T07:37:20.630Z,2180
2018-03-15T07:38:22.023Z,2204
2018-03-15T07:39:23.467Z,2216
2018-03-15T07:40:24.819Z,2232
2018-03-15T07:41:26.210Z,2256
2018-03-15T07:42:27.604Z,2272
2018-03-15T07:43:28.995Z,2284
2018-03-15T07:44:30.397Z,2296
2018-03-15T07:45:31.818Z,2308
2018-03-15T07:46:33.208Z,2324
2018-03-15T07:47:34.595Z,2348
2018-03-15T07:48:35.987Z,2360
2018-03-15T07:49:37.377Z,2364
2018-03-15T07:50:38.770Z,2388
2018-03-15T07:51:40.187Z,2420
2018-03-15T07:52:41.576Z,2452
2018-03-15T07:53:42.963Z,2492
2018-03-15T07:54:44.355Z,2508
2018-03-15T07:55:45.756Z,2536
2018-03-15T07:56:47.155Z,2556
2018-03-15T07:57:48.535Z,2584
2018-03-15T07:58:49.928Z,2612
2018-03-15T07:59:51.319Z,2636
2018-03-15T08:00:52.703Z,2668
2018-03-15T08:01:54.113Z,2708
2018-03-15T08:02:55.499Z,2740
2018-03-15T08:03:56.891Z,2784
2018-03-15T08:04:58.300Z,2836
2018-03-15T08:05:59.694Z,2872
2018-03-15T08:07:01.081Z,2904
2018-03-15T08:08:02.468Z,2940
2018-03-15T08:09:03.864Z,2988
2018-03-15T08:10:05.259Z,3020
2018-03-15T08:11:06.647Z,3052
2018-03-15T08:12:08.043Z,3068
2018-03-15T08:13:09.431Z,3104
2018-03-15T08:14:10.827Z,3148
2018-03-15T08:15:12.215Z,3188
2018-03-15T08:16:13.608Z,3236
2018-03-15T08:17:14.998Z,3260
2018-03-15T08:18:16.386Z,3284
2018-03-15T08:19:17.804Z,3324
2018-03-15T08:20:19.218Z,3352
2018-03-15T08:21:20.607Z,3380
2018-03-15T08:22:21.996Z,3428
2018-03-15T08:23:23.390Z,3452
2018-03-15T08:24:24.782Z,3484
2018-03-15T08:25:26.173Z,3528
2018-03-15T08:26:27.562Z,3584
2018-03-15T08:27:28.957Z,3632
2018-03-15T08:28:30.346Z,3688
2018-03-15T08:29:31.756Z,3716
2018-03-15T08:30:33.149Z,3728
2018-03-15T08:31:34.538Z,3760
2018-03-15T08:32:35.928Z,3800
2018-03-15T08:33:37.321Z,3784
2018-03-15T08:34:38.769Z,3784
2018-03-15T08:35:40.166Z,3816
2018-03-15T08:36:41.558Z,3820
2018-03-15T08:37:42.958Z,3856
2018-03-15T08:38:44.348Z,3884
2018-03-15T08:39:45.769Z,3940
2018-03-15T08:40:47.141Z,3960
2018-03-15T08:41:48.533Z,3984
2018-03-15T08:42:49.921Z,4068
2018-03-15T08:43:51.320Z,4176
2018-03-15T08:44:52.713Z,4192
2018-03-15T08:45:54.107Z,4176
2018-03-15T08:46:55.505Z,4228
2018-03-15T08:47:56.896Z,4248
2018-03-15T08:48:58.287Z,4300
2018-03-15T08:49:59.680Z,4396
2018-03-15T08:51:01.067Z,4444
2018-03-15T08:52:02.458Z,4520
2018-03-15T08:53:03.852Z,4636
2018-03-15T08:54:05.249Z,4672
2018-03-15T08:55:06.635Z,4704
2018-03-15T08:56:08.029Z,4736
2018-03-15T08:57:09.450Z,4988
2018-03-15T08:58:10.813Z,5264
2018-03-15T08:59:12.205Z,5308
2018-03-15T09:00:13.603Z,5328
2018-03-15T09:01:14.991Z,5308
2018-03-15T09:02:16.384Z,5372
2018-03-15T09:03:17.775Z,5528
2018-03-15T09:04:19.165Z,5616
2018-03-15T09:05:20.570Z,5540
2018-03-15T09:06:21.960Z,5616
2018-03-15T09:07:23.356Z,5664
2018-03-15T09:08:24.753Z,5680
2018-03-15T09:09:26.141Z,5772
2018-03-15T09:10:27.550Z,5952
2018-03-15T09:11:28.940Z,6028
2018-03-15T09:12:30.334Z,5968
2018-03-15T09:13:31.727Z,6156
2018-03-15T09:14:33.132Z,6100
2018-03-15T09:15:34.548Z,6356
2018-03-15T09:16:35.939Z,6388
2018-03-15T09:17:37.334Z,6332
2018-03-15T09:18:38.724Z,6460
2018-03-15T09:19:40.121Z,6436
2018-03-15T09:20:41.512Z,6572
2018-03-15T09:21:42.906Z,6564
2018-03-15T09:22:44.297Z,6436
2018-03-15T09:23:45.691Z,6568
2018-03-15T09:24:47.212Z,7236
2018-03-15T09:25:48.625Z,9356
2018-03-15T09:26:50.019Z,13500
2018-03-15T09:27:51.412Z,22080
2018-03-15T09:28:52.825Z,26848
2018-03-15T09:29:54.217Z,26912
2018-03-15T09:30:55.611Z,25984
2018-03-15T09:31:57.010Z,24192
2018-03-15T09:32:58.407Z,20864
2018-03-15T09:33:59.805Z,20416
2018-03-15T09:35:01.201Z,20160
2018-03-15T09:36:02.598Z,18240
2018-03-15T09:37:03.994Z,18496
2018-03-15T09:38:05.395Z,20160
2018-03-15T09:39:06.795Z,21536
2018-03-15T09:40:08.189Z,25280
2018-03-15T09:41:09.589Z,23072
2018-03-15T09:42:10.984Z,23584
2018-03-15T09:43:12.385Z,24224
2018-03-15T09:44:13.780Z,26112
2018-03-15T09:45:15.174Z,24928
2018-03-15T09:46:16.607Z,25600
2018-03-15T09:47:17.978Z,26624
2018-03-15T09:48:19.372Z,27936
2018-03-15T09:49:20.772Z,25696
2018-03-15T09:50:22.166Z,22688
2018-03-15T09:51:23.565Z,20736
2018-03-15T09:52:24.966Z,22336
2018-03-15T09:53:26.365Z,20928
2018-03-15T09:54:27.768Z,21568
2018-03-15T09:55:29.166Z,22528
2018-03-15T09:56:30.570Z,21664
2018-03-15T09:57:31.973Z,22784
2018-03-15T09:58:33.370Z,22464
2018-03-15T09:59:34.772Z,20832
2018-03-15T10:00:36.169Z,20288
2018-03-15T10:01:37.565Z,19040
2018-03-15T10:02:38.965Z,19488
2018-03-15T10:03:40.358Z,18208
2018-03-15T10:04:41.756Z,17792
2018-03-15T10:05:43.165Z,17280
2018-03-15T10:06:44.566Z,17312
2018-03-15T10:07:46.933Z,20032
2018-03-15T10:08:48.328Z,18912
2018-03-15T10:09:49.726Z,17344
2018-03-15T10:10:51.122Z,16960
2018-03-15T10:11:52.617Z,17472
2018-03-15T10:12:53.987Z,17664
2018-03-15T10:13:55.386Z,17536
2018-03-15T10:14:56.785Z,17792
2018-03-15T10:15:58.217Z,19840
2018-03-15T10:16:59.612Z,20160
2018-03-15T10:18:01.025Z,20320
2018-03-15T10:19:02.441Z,20896
2018-03-15T10:20:03.830Z,20000
2018-03-15T10:21:05.234Z,19168
2018-03-15T10:22:06.657Z,19392
2018-03-15T10:23:08.055Z,19040
2018-03-15T10:24:09.458Z,20128
2018-03-15T10:25:13.770Z,18720
2018-03-15T10:26:12.249Z,20000
2018-03-15T10:27:13.657Z,19872
2018-03-15T10:28:15.054Z,19104
2018-03-15T10:29:16.455Z,16448
2018-03-15T10:30:17.849Z,17344
2018-03-15T10:31:19.249Z,16704
2018-03-15T10:32:20.655Z,12644
2018-03-15T10:33:22.053Z,10548
2018-03-15T10:34:23.449Z,9272
2018-03-15T10:35:24.850Z,10140
2018-03-15T10:36:26.255Z,13476
2018-03-15T10:37:27.652Z,11944
2018-03-15T10:38:29.048Z,10152
2018-03-15T10:39:30.447Z,12852
2018-03-15T10:40:31.844Z,11532
2018-03-15T10:41:33.282Z,10300
2018-03-15T10:42:34.684Z,9288
2018-03-15T10:43:36.084Z,8828
2018-03-15T10:44:37.481Z,8280
2018-03-15T10:45:38.877Z,7724
2018-03-15T10:46:40.273Z,7240
2018-03-15T10:47:41.670Z,6932
2018-03-15T10:48:43.066Z,6596
2018-03-15T10:49:44.470Z,6312
2018-03-15T10:50:45.871Z,6188
2018-03-15T10:51:47.277Z,6272
2018-03-15T10:52:48.676Z,6404
2018-03-15T10:53:50.074Z,6632
2018-03-15T10:54:51.467Z,6812
2018-03-15T10:55:52.864Z,6840
2018-03-15T10:56:54.263Z,6756
2018-03-15T10:57:55.726Z,6716
2018-03-15T10:58:57.054Z,6552
2018-03-15T10:59:58.467Z,6496
2018-03-15T11:00:59.898Z,6456
2018-03-15T11:02:01.312Z,6432
2018-03-15T11:03:02.712Z,6476
2018-03-15T11:04:04.109Z,6536
2018-03-15T11:05:05.509Z,6672
2018-03-15T11:06:06.904Z,6512
2018-03-15T11:07:08.299Z,6284
2018-03-15T11:08:09.695Z,6048
2018-03-15T11:09:11.094Z,6140
2018-03-15T11:10:12.497Z,6044
2018-03-15T11:11:13.893Z,5856
2018-03-15T11:12:15.295Z,5684
2018-03-15T11:13:16.686Z,5652
2018-03-15T11:14:18.088Z,5696
2018-03-15T11:15:19.485Z,5480
2018-03-15T11:16:20.878Z,5488
2018-03-15T11:17:22.274Z,5536
2018-03-15T11:18:23.707Z,5636
2018-03-15T11:19:25.194Z,5612
2018-03-15T11:20:26.603Z,5604
2018-03-15T11:21:28.002Z,5632
2018-03-15T11:22:29.403Z,5436
2018-03-15T11:23:30.794Z,5324
2018-03-15T11:24:32.196Z,5272
2018-03-15T11:25:33.593Z,5224
2018-03-15T11:26:35.007Z,5132
2018-03-15T11:27:36.415Z,4944
2018-03-15T11:28:37.807Z,4776
2018-03-15T11:29:39.204Z,4620
2018-03-15T11:30:40.600Z,4456
2018-03-15T11:31:41.989Z,4336
2018-03-15T11:32:43.404Z,4224
2018-03-15T11:33:44.822Z,4104
2018-03-15T11:34:46.215Z,3988
2018-03-15T11:35:47.610Z,3848
2018-03-15T11:36:49.004Z,3720
2018-03-15T11:37:50.400Z,3620
2018-03-15T11:38:51.795Z,3516
2018-03-15T11:39:53.190Z,3416
2018-03-15T11:40:54.586Z,3336
2018-03-15T11:41:55.980Z,3272
2018-03-15T11:42:57.380Z,3208
2018-03-15T11:43:58.769Z,3164
2018-03-15T11:45:00.161Z,3112
2018-03-15T11:46:01.560Z,3064
2018-03-15T11:47:02.955Z,3044
2018-03-15T11:48:04.353Z,3032
2018-03-15T11:49:05.744Z,3012
2018-03-15T11:50:07.180Z,2980
2018-03-15T11:51:08.593Z,2944
2018-03-15T11:52:09.990Z,2908
2018-03-15T11:53:11.388Z,2864
2018-03-15T11:54:12.782Z,2812
2018-03-15T11:55:14.188Z,2772
2018-03-15T11:56:15.613Z,2728
2018-03-15T11:57:16.966Z,2672
2018-03-15T11:58:18.358Z,2652
2018-03-15T11:59:19.763Z,2636
2018-03-15T12:00:21.161Z,2628
2018-03-15T12:01:22.551Z,2624
2018-03-15T12:02:23.945Z,2620
2018-03-15T12:03:25.339Z,2604
2018-03-15T12:04:26.731Z,2584
2018-03-15T12:05:28.126Z,2564
2018-03-15T12:06:29.521Z,2544
2018-03-15T12:07:30.925Z,2524
2018-03-15T12:08:32.321Z,2496
2018-03-15T12:09:33.716Z,2452
2018-03-15T12:10:35.107Z,2424
2018-03-15T12:11:36.537Z,2404
2018-03-15T12:12:37.929Z,2392
2018-03-15T12:13:39.321Z,2388
2018-03-15T12:14:40.718Z,2356
2018-03-15T12:15:42.114Z,2332
2018-03-15T12:16:43.509Z,2320
2018-03-15T12:17:44.905Z,2308
2018-03-15T12:18:46.297Z,2296
2018-03-15T12:19:47.693Z,2304
2018-03-15T12:20:49.096Z,2316
2018-03-15T12:21:50.487Z,2348
2018-03-15T12:22:51.886Z,2376
2018-03-15T12:23:53.281Z,2396
2018-03-15T12:24:54.670Z,2424
2018-03-15T12:25:56.059Z,2440
2018-03-15T12:26:57.516Z,2464
2018-03-15T12:27:58.904Z,2484
2018-03-15T12:29:00.297Z,2536
2018-03-15T12:30:01.692Z,2612
2018-03-15T12:31:03.088Z,2680
2018-03-15T12:32:04.484Z,2732
2018-03-15T12:33:05.879Z,2764
2018-03-15T12:34:07.273Z,2772
2018-03-15T12:35:08.672Z,2808
2018-03-15T12:36:10.063Z,2868
2018-03-15T12:37:11.461Z,2936
2018-03-15T12:38:12.900Z,2992
2018-03-15T12:39:14.380Z,3052
2018-03-15T12:40:15.772Z,3060
2018-03-15T12:41:17.160Z,3048
2018-03-15T12:42:18.554Z,3036
2018-03-15T12:43:19.971Z,3032
2018-03-15T12:44:21.369Z,3004
2018-03-15T12:45:22.765Z,2988
2018-03-15T12:46:24.162Z,2972
2018-03-15T12:47:25.549Z,2940
2018-03-15T12:48:26.949Z,2900
2018-03-15T12:49:28.344Z,2840
2018-03-15T12:50:29.775Z,2768
2018-03-15T12:51:31.134Z,2696
2018-03-15T12:52:32.530Z,2624
2018-03-15T12:53:33.928Z,2580
2018-03-15T12:54:35.320Z,2556
2018-03-15T12:55:36.710Z,2536
2018-03-15T12:56:38.111Z,2520
2018-03-15T12:57:39.503Z,2508
2018-03-15T12:58:40.903Z,2544
2018-03-15T12:59:42.295Z,2604
2018-03-15T13:00:43.686Z,2688
2018-03-15T13:01:45.080Z,2728
2018-03-15T13:02:46.475Z,2828
2018-03-15T13:03:47.882Z,2976
2018-03-15T13:04:49.281Z,3160
2018-03-15T13:05:50.681Z,3320
2018-03-15T13:06:52.075Z,3432
2018-03-15T13:07:53.731Z,3516
2018-03-15T13:08:55.122Z,3548
2018-03-15T13:09:56.513Z,3504
2018-03-15T13:10:57.914Z,3352
2018-03-15T13:11:59.364Z,3160
2018-03-15T13:13:00.708Z,2988
2018-03-15T13:14:02.114Z,2832
2018-03-15T13:15:03.507Z,2696
2018-03-15T13:16:04.900Z,2600
2018-03-15T13:17:06.296Z,2524
2018-03-15T13:18:07.690Z,2440
2018-03-15T13:19:09.086Z,2356
2018-03-15T13:20:10.486Z,2264
2018-03-15T13:21:11.885Z,2172
2018-03-15T13:22:13.291Z,2100
2018-03-15T13:23:14.707Z,2084
2018-03-15T13:24:16.080Z,2160
2018-03-15T13:25:17.476Z,2320
2018-03-15T13:26:18.876Z,2540
2018-03-15T13:27:20.267Z,2728
2018-03-15T13:28:21.724Z,2732
2018-03-15T13:29:23.155Z,2620
2018-03-15T13:30:24.550Z,2492
2018-03-15T13:31:25.949Z,2332
2018-03-15T13:32:27.345Z,2180
2018-03-15T13:33:28.739Z,2172
2018-03-15T13:34:30.164Z,2232
2018-03-15T13:35:31.570Z,2276
2018-03-15T13:36:32.969Z,2256
2018-03-15T13:37:34.362Z,2244
2018-03-15T13:38:35.758Z,2244
2018-03-15T13:39:37.148Z,2256
2018-03-15T13:40:38.555Z,2244
2018-03-15T13:41:39.953Z,2188
2018-03-15T13:42:41.350Z,2152
2018-03-15T13:43:42.748Z,2124
2018-03-15T13:44:44.132Z,2112
2018-03-15T13:45:45.525Z,2048
2018-03-15T13:46:46.921Z,1904
2018-03-15T13:47:48.314Z,1752
2018-03-15T13:48:49.708Z,1624
2018-03-15T13:49:51.104Z,1520
2018-03-15T13:50:52.491Z,1440
2018-03-15T13:51:53.884Z,1404
2018-03-15T13:52:55.277Z,1364
2018-03-15T13:53:56.671Z,1304
2018-03-15T13:54:58.068Z,1252
2018-03-15T13:55:59.483Z,1228
2018-03-15T13:57:00.877Z,1220
2018-03-15T13:58:02.270Z,1232
2018-03-15T13:59:03.685Z,1260
2018-03-15T14:00:05.077Z,1300
2018-03-15T14:01:06.468Z,1336
2018-03-15T14:02:07.865Z,1388
2018-03-15T14:03:09.261Z,1448
2018-03-15T14:04:10.658Z,1532
2018-03-15T14:05:12.052Z,1628
2018-03-15T14:06:13.440Z,1720
2018-03-15T14:07:14.834Z,1812
2018-03-15T14:08:16.227Z,1912
2018-03-15T14:09:17.622Z,2008
2018-03-15T14:10:19.019Z,2076
2018-03-15T14:11:20.424Z,2108